createdAt,value
2023-01-21T00:03:58.478Z,65.5
2023-01-21T00:09:34.782Z,65.6
2023-01-21T00:15:10.334Z,65.9
2023-01-21T00:21:06.758Z,65.9
2023-01-21T00:27:02.385Z,65.8
2023-01-21T00:32:37.560Z,65.8
2023-01-21T00:38:21.315Z,65.9
2023-01-21T00:44:06.071Z,65.5
2023-01-21T00:50:05.576Z,65.4
2023-01-21T00:55:38.952Z,65.4
2023-01-21T01:02:13.104Z,65.3
2023-01-21T01:08:05.460Z,65.9
2023-01-21T01:13:50.757Z,65.7
2023-01-21T01:19:32.707Z,65.7
2023-01-21T01:25:17.360Z,65.7
2023-01-21T01:31:00.885Z,65.7
2023-01-21T01:36:48.277Z,65.5
2023-01-21T01:42:23.403Z,65.6
2023-01-21T01:48:19.476Z,65.9
2023-01-21T01:55:02.884Z,66.3
2023-01-21T02:00:38.291Z,66.2
2023-01-21T02:08:08.052Z,66.1
2023-01-21T02:13:49.985Z,66.6
2023-01-21T02:19:30.042Z,66.7
2023-01-21T02:25:25.180Z,66.3
2023-01-21T02:31:01.399Z,65.9
2023-01-21T02:36:38.208Z,66
2023-01-21T02:42:13.364Z,66.1
2023-01-21T02:47:52.901Z,65.8
2023-01-21T02:53:49.471Z,65.5
2023-01-21T03:00:48.283Z,65.4
2023-01-21T03:06:33.000Z,65.9
2023-01-21T03:12:08.424Z,66.8
2023-01-21T03:17:52.497Z,66.3
2023-01-21T03:23:27.650Z,66.4
2023-01-21T03:29:06.128Z,66.2
2023-01-21T03:34:44.561Z,66.1
2023-01-21T03:40:23.907Z,65.5
2023-01-21T03:45:59.385Z,65.4
2023-01-21T03:51:35.437Z,65.3
2023-01-21T03:57:19.263Z,65.2
2023-01-21T04:03:44.138Z,65.2
2023-01-21T04:09:31.868Z,65
2023-01-21T04:15:28.029Z,65.3
2023-01-21T04:21:03.402Z,65.4
2023-01-21T04:27:02.505Z,65.4
2023-01-21T04:33:51.078Z,65.7
2023-01-21T04:39:46.227Z,65.6
2023-01-21T04:45:45.394Z,65.7
2023-01-21T04:51:22.108Z,66.2
2023-01-21T04:56:58.127Z,66.8
2023-01-21T05:02:51.193Z,66.2
2023-01-21T05:08:27.839Z,65.3
2023-01-21T05:14:29.020Z,65.9
2023-01-21T05:20:04.866Z,66.1
2023-01-21T05:25:41.278Z,66.5
2023-01-21T05:31:20.205Z,66.5
2023-01-21T05:36:58.135Z,65.7
2023-01-21T05:42:54.094Z,66.1
2023-01-21T05:49:03.077Z,66
2023-01-21T05:55:02.767Z,66.1
2023-01-21T06:01:20.323Z,66.3
2023-01-21T06:07:16.456Z,66.3
2023-01-21T06:12:56.864Z,66
2023-01-21T06:18:35.103Z,65.8
2023-01-21T06:24:16.878Z,65.9
2023-01-21T06:29:54.465Z,66
2023-01-21T06:35:51.800Z,65.9
2023-01-21T06:41:27.059Z,66.4
2023-01-21T06:47:02.774Z,66.4
2023-01-21T06:52:38.759Z,66.9
2023-01-21T06:58:35.851Z,66.4
2023-01-21T07:04:10.937Z,66.4
2023-01-21T07:09:57.195Z,66
2023-01-21T07:15:50.171Z,66.7
2023-01-21T07:22:07.799Z,66.5
2023-01-21T07:28:21.280Z,66.1
2023-01-21T07:33:56.331Z,72.7
2023-01-21T07:39:31.157Z,75.2
2023-01-21T07:45:06.460Z,75.9
2023-01-21T07:50:42.151Z,76.7
2023-01-21T07:56:16.981Z,76.8
2023-01-21T08:01:53.049Z,76.1
2023-01-21T08:07:30.466Z,77.1
2023-01-21T08:13:05.850Z,75.8
2023-01-21T08:18:41.129Z,77
2023-01-21T08:24:19.294Z,76
2023-01-21T08:29:54.184Z,75.1
2023-01-21T08:35:29.248Z,74.5
2023-01-21T08:41:05.221Z,74.5
2023-01-21T08:46:43.291Z,75.6
2023-01-21T08:52:18.521Z,75.5
2023-01-21T08:57:54.128Z,77.8
2023-01-21T09:03:30.333Z,78.3
2023-01-21T09:09:10.430Z,76.9
2023-01-21T09:14:47.114Z,74.8
2023-01-21T09:20:27.200Z,73.5
2023-01-21T09:26:03.236Z,75.1
2023-01-21T09:31:38.775Z,75
2023-01-21T09:37:14.318Z,76.3
2023-01-21T09:42:49.957Z,76.7
2023-01-21T09:48:25.686Z,75.2
2023-01-21T09:54:01.547Z,78.1
2023-01-21T09:59:37.016Z,77.9
2023-01-21T10:05:12.204Z,75.1
2023-01-21T10:10:48.254Z,74.1
2023-01-21T10:16:24.638Z,71.1
2023-01-21T10:22:02.957Z,70.9
2023-01-21T10:27:38.647Z,74
2023-01-21T10:33:46.382Z,75.4
2023-01-21T10:39:22.748Z,69.7
2023-01-21T10:44:57.971Z,67.8
2023-01-21T10:50:34.041Z,66.1
2023-01-21T10:56:40.176Z,66.9
2023-01-21T11:02:19.382Z,63.4
2023-01-21T11:08:16.509Z,63.4
2023-01-21T11:13:56.562Z,67.6
2023-01-21T11:19:46.805Z,66
2023-01-21T11:25:24.857Z,65
2023-01-21T11:31:01.576Z,57.9
2023-01-21T11:36:39.936Z,52.8
2023-01-21T11:42:22.574Z,52.9
2023-01-21T11:48:19.946Z,54.5
2023-01-21T11:53:53.113Z,52.3
2023-01-21T11:59:38.552Z,52.5
2023-01-21T12:05:14.372Z,51.4
2023-01-21T12:11:32.331Z,49.4
2023-01-21T12:17:08.500Z,49.7
2023-01-21T12:22:44.289Z,50.2
2023-01-21T12:31:01.479Z,50.6
2023-01-21T12:37:30.927Z,49.9
2023-01-21T12:43:09.110Z,50.7
2023-01-21T12:48:44.278Z,49.6
2023-01-21T12:54:19.783Z,45.7
2023-01-21T12:59:55.260Z,51
2023-01-21T13:05:38.963Z,53.7
2023-01-21T13:11:26.450Z,55.9
2023-01-21T13:17:01.797Z,54
2023-01-21T13:22:43.211Z,47.4
2023-01-21T13:28:20.421Z,47.6
2023-01-21T13:33:56.280Z,51.1
2023-01-21T13:39:31.417Z,51.7
2023-01-21T13:45:10.949Z,52.3
2023-01-21T13:51:46.308Z,50.8
2023-01-21T13:57:32.978Z,51.9
2023-01-21T14:03:17.867Z,53.2
2023-01-21T14:08:55.736Z,51.1
2023-01-21T14:14:31.097Z,54.2
2023-01-21T14:20:19.035Z,52.9
2023-01-21T14:25:58.408Z,54.2
2023-01-21T14:31:36.427Z,53.5
2023-01-21T14:37:12.402Z,47.7
2023-01-21T14:42:47.427Z,46.7
2023-01-21T14:48:25.400Z,43
2023-01-21T14:54:04.398Z,48.7
2023-01-21T15:00:10.044Z,48.8
2023-01-21T15:05:51.125Z,49.8
2023-01-21T15:11:28.889Z,52.7
2023-01-21T15:17:08.163Z,56.6
2023-01-21T15:22:46.542Z,55.4
2023-01-21T15:28:25.744Z,58.5
2023-01-21T15:34:01.810Z,59.9
2023-01-21T15:39:42.659Z,60.1
2023-01-21T15:45:21.041Z,62
2023-01-21T15:50:56.516Z,60.2
2023-01-21T15:56:32.098Z,61
2023-01-21T16:02:23.200Z,61.4
2023-01-21T16:08:00.512Z,61.7
2023-01-21T16:13:37.263Z,60.6
2023-01-21T16:19:18.718Z,64
2023-01-21T16:24:57.151Z,63.7
2023-01-21T16:30:33.661Z,65.8
2023-01-21T16:36:40.992Z,66.6
2023-01-21T16:42:32.077Z,67
2023-01-21T16:48:34.120Z,66.3
2023-01-21T16:54:18.212Z,67.1
2023-01-21T17:00:06.404Z,68.2
2023-01-21T17:05:45.266Z,68.7
2023-01-21T17:11:20.248Z,67.8
2023-01-21T17:16:59.619Z,67.2
2023-01-21T17:22:35.052Z,68.7
2023-01-21T17:28:10.662Z,71.4
2023-01-21T17:33:57.955Z,70.9
2023-01-21T17:39:34.227Z,66.5
2023-01-21T17:45:09.283Z,64.1
2023-01-21T17:50:55.857Z,62.6
2023-01-21T17:56:35.025Z,61.9
2023-01-21T18:02:48.599Z,62.2
2023-01-21T18:08:24.785Z,62.6
2023-01-21T18:13:59.751Z,62.4
2023-01-21T18:19:36.197Z,62.6
2023-01-21T18:25:11.469Z,62.2
2023-01-21T18:30:51.215Z,62.3
2023-01-21T18:36:28.639Z,62.6
2023-01-21T18:42:17.095Z,62.9
2023-01-21T18:48:31.472Z,63.4
2023-01-21T18:54:05.537Z,63.8
2023-01-21T18:59:41.386Z,63.7
2023-01-21T19:05:17.816Z,63.7
2023-01-21T19:11:02.125Z,63.7
2023-01-21T19:16:46.144Z,63.7
2023-01-21T19:22:52.335Z,63.7
2023-01-21T19:28:28.526Z,63.4
2023-01-21T19:34:06.463Z,63.1
2023-01-21T19:39:44.542Z,63
2023-01-21T19:45:20.551Z,63.1
2023-01-21T19:50:58.922Z,62.9
2023-01-21T19:56:34.926Z,62.6
2023-01-21T20:02:20.502Z,62.5
2023-01-21T20:08:00.853Z,63
2023-01-21T20:13:56.829Z,63.7
2023-01-21T20:19:37.094Z,63.2
2023-01-21T20:25:15.560Z,63.9
2023-01-21T20:31:18.948Z,63.7
2023-01-21T20:37:04.065Z,63.8
2023-01-21T20:42:39.427Z,63.3
2023-01-21T20:48:17.418Z,63.5
2023-01-21T20:53:52.957Z,63.2
2023-01-21T20:59:28.386Z,62.6
2023-01-21T21:05:10.796Z,61.5
2023-01-21T21:11:30.795Z,61.4
2023-01-21T21:17:06.357Z,61.5
2023-01-21T21:23:12.774Z,62
2023-01-21T21:28:50.175Z,62.1
2023-01-21T21:34:51.053Z,62.2
2023-01-21T21:40:25.918Z,62
2023-01-21T21:46:05.442Z,62
2023-01-21T21:51:47.612Z,61.7
2023-01-21T21:57:28.320Z,61.5
2023-01-21T22:03:03.795Z,61.4
2023-01-21T22:08:38.747Z,61.9
2023-01-21T22:14:34.581Z,61.9
2023-01-21T22:20:13.295Z,62.1
2023-01-21T22:25:48.733Z,61.8
2023-01-21T22:31:27.708Z,61.4
2023-01-21T22:37:05.237Z,61.2
2023-01-21T22:42:50.288Z,60.7
2023-01-21T22:48:50.052Z,60.4
2023-01-21T22:54:23.119Z,62.2
2023-01-21T23:00:09.855Z,61.7
2023-01-21T23:06:22.053Z,62.2
2023-01-21T23:12:13.737Z,62.1
2023-01-21T23:18:02.431Z,61.4
2023-01-21T23:23:38.389Z,61.6
2023-01-21T23:29:13.632Z,62.5
2023-01-21T23:34:49.152Z,62.8
2023-01-21T23:40:23.973Z,62.7
2023-01-21T23:46:31.567Z,64.2
2023-01-21T23:52:05.600Z,64.1
2023-01-21T23:57:53.611Z,64.3
